Terminal Aerodrome Forecast
Issued by NWS Sioux Falls, SD

Home | Current Version | Previous Version | Graphics & Text | Print | Product List | Glossary On
Versions: 1 2 3 4 5 6 7 8 9 10 11 12 13
000
FTUS43 KFSD 270520
TAFFSD
TAF
KFSD 270520Z 2706/2806 14008KT P6SM SCT025 OVC110
     FM270900 14006KT P6SM OVC025
      TEMPO 2710/2711 BKN015
     FM271100 15005KT 3SM -SHRA BR OVC010
      TEMPO 2711/2714 2SM BR BKN007
     FM271500 16006KT P6SM OVC015
     FM271700 17009KT P6SM SCT030 SCT120
     FM280400 17009KT P6SM BKN035=

USA.gov is the U.S. government's official web portal to all federal, state and local government web resources and services.